Air Quality Table

TIMESTAMP NO2 O3 PM2.5 TEMP HUM AIRPRES WS WD NO
2022-06-28 16:00 9.05 µg/m3 61.83 µg/m3 19.2 µg/m3 37.96 °C N/A 1,000.93 mbar 1.92 m/s 222.02 Deg 2.39 µg/m3
2022-06-28 15:00 6.81 µg/m3 63.7 µg/m3 18.27 µg/m3 38 °C N/A 1,001.27 mbar 1.59 m/s 246.55 Deg 1.42 µg/m3
2022-06-28 14:00 7.22 µg/m3 57.61 µg/m3 17.76 µg/m3 37.88 °C N/A 1,001.45 mbar 1.8 m/s 250.19 Deg 1.92 µg/m3
2022-06-28 13:00 7.31 µg/m3 56.45 µg/m3 18.35 µg/m3 37.9 °C N/A 1,001.59 mbar 1.68 m/s 260.3 Deg 2.39 µg/m3
2022-06-28 12:00 12.5 µg/m3 54.28 µg/m3 18.48 µg/m3 37.58 °C N/A 1,001.83 mbar 1.29 m/s 257.77 Deg 3.37 µg/m3
2022-06-28 11:00 8.75 µg/m3 52.51 µg/m3 17.7 µg/m3 36.61 °C N/A 1,002.10 mbar 1.65 m/s 236.85 Deg 2.39 µg/m3
2022-06-28 10:00 10.48 µg/m3 53.03 µg/m3 20.31 µg/m3 36.91 °C N/A 1,002.11 mbar 0.99 m/s 251.78 Deg 2.45 µg/m3
2022-06-28 09:00 12.9 µg/m3 45.8 µg/m3 20.24 µg/m3 35.58 °C N/A 1,002.17 mbar 0.8 m/s 253.48 Deg 3.8 µg/m3
2022-06-28 08:00 28.54 µg/m3 33.67 µg/m3 29.77 µg/m3 33.39 °C N/A 1,002.19 mbar 0.76 m/s 241.25 Deg 18.52 µg/m3
2022-06-28 07:00 55.86 µg/m3 9.17 µg/m3 29.12 µg/m3 30.58 °C N/A 1,001.91 mbar 0.42 m/s 241.54 Deg 58.13 µg/m3
2022-06-28 06:00 46.49 µg/m3 4.76 µg/m3 21.37 µg/m3 26.32 °C N/A 1,001.91 mbar 0.35 m/s 298.3 Deg 35.47 µg/m3
2022-06-28 05:00 19.62 µg/m3 32.15 µg/m3 19.29 µg/m3 25.98 °C N/A 1,001.69 mbar 0.59 m/s 309.59 Deg 0.85 µg/m3
2022-06-28 04:00 15.09 µg/m3 35.08 µg/m3 21.47 µg/m3 26.23 °C N/A 1,001.26 mbar 0.68 m/s 323.46 Deg 0 µg/m3
2022-06-28 03:00 18.15 µg/m3 32.56 µg/m3 18.5 µg/m3 27.34 °C N/A 1,001.27 mbar 0.48 m/s 332.86 Deg 0.16 µg/m3
2022-06-28 02:00 4.33 µg/m3 47.55 µg/m3 17.14 µg/m3 28.59 °C N/A 1,001.60 mbar 0.66 m/s 227.99 Deg 0.15 µg/m3
2022-06-28 01:00 2.74 µg/m3 51.05 µg/m3 15.26 µg/m3 28.23 °C N/A 1,002.03 mbar 0.92 m/s 240.08 Deg 0.15 µg/m3
2022-06-28 00:00 3.64 µg/m3 51.65 µg/m3 15.09 µg/m3 28.19 °C N/A 1,002.41 mbar 0.92 m/s 220.45 Deg 0.28 µg/m3
2022-06-27 23:00 8.23 µg/m3 46.76 µg/m3 24.02 µg/m3 28.26 °C N/A 1,002.74 mbar 1.22 m/s 230.87 Deg 0.23 µg/m3
2022-06-27 22:00 10.66 µg/m3 46.91 µg/m3 22.37 µg/m3 28.62 °C N/A 1,002.85 mbar 1.25 m/s 217.48 Deg 0.47 µg/m3
2022-06-27 21:00 10.92 µg/m3 46 µg/m3 20.84 µg/m3 28.79 °C N/A 1,002.62 mbar 0.95 m/s 238.3 Deg 0.39 µg/m3
2022-06-27 20:00 15.38 µg/m3 43.89 µg/m3 20.39 µg/m3 29.8 °C N/A 1,002.51 mbar 1.22 m/s 217.27 Deg 1.04 µg/m3
2022-06-27 19:00 11.74 µg/m3 54.47 µg/m3 20.82 µg/m3 31.56 °C N/A 1,002.54 mbar 1.56 m/s 199.8 Deg 1.33 µg/m3

It is to be noted that the data is provisional and subject to quality assurance procedures. For validated data kindly refer your request to contact.air@era.org.mt